Flight Track Log - Related Links

Times and Time Zones

All times are in EDT time to prevent confusion due to time zone crossing. See the UAL1177 flight status page for this flight to view local times or setup timezone preferences in your user account.

Time Position Orientation Groundspeed Altitude Reporting Facility
EDT Latitude Longitude Course Direction KTS MPH feet Rate Location/Type
Sat 11:05:38 AM 40.7167 -74.1500 56° Northeast 175 201 1,700  Level New York TRACON
Sat 11:06:38 AM 40.7500 -74.1000 49° Northeast 197 227 4,700 2,689 Climbing New York TRACON
Sat 11:08:00 AM 40.9239 -73.8099 47° Northeast  Level FlightAware Approximate
Sat 11:08:41 AM 40.7836 -73.9394 74° East 273 314 9,900  Level Boston Center
Sat 11:09:00 AM 40.9859 -73.7180 51° Northeast  Level FlightAware Approximate
Sat 11:09:41 AM 40.8450 -73.8586 45° Northeast 264 304 11,600  Level Boston Center
Sat 11:10:00 AM 41.0438 -73.6215 51° Northeast  Level FlightAware Approximate
Sat 11:10:41 AM 40.9128 -73.7722 44° Northeast 299 344 14,100  Level Boston Center
Sat 11:11:00 AM 41.1081 -73.5338 56° Northeast  Level FlightAware Approximate
Sat 11:11:41 AM 40.9806 -73.6772 47° Northeast 330 380 17,100  Level Boston Center
Sat 11:12:41 AM 41.0419 -73.5931 46° Northeast 346 398 19,000 1,150 Climbing Boston Center
Sat 11:13:41 AM 41.1222 -73.4953 43° Northeast 346 398 19,400 1,000 Climbing Boston Center
Sat 11:14:41 AM 41.1856 -73.4028 48° Northeast 346 398 21,000 800 Climbing Boston Center
Sat 11:15:41 AM 41.2342 -73.2958 59° Northeast 341 392 21,000  Level Boston Center
Sat 11:16:41 AM 41.2683 -73.1747 69° East 330 380 21,000 -50 Level Boston Center
Sat 11:17:41 AM 41.2983 -73.0617 71° East 343 395 20,900  Descending Boston Center
Sat 11:18:41 AM 41.3322 -72.9406 70° East 348 400 21,000 50 Climbing Boston Center
Sat 11:19:41 AM 41.3661 -72.8136 70° East 348 400 21,000 -50 Level Boston Center
Sat 11:20:41 AM 41.3956 -72.6919 72° East 348 400 20,900  Descending Boston Center
Sat 11:21:41 AM 41.4292 -72.5675 70° East 348 400 21,000 50 Climbing Boston Center
Sat 11:22:41 AM 41.4625 -72.4428 70° East 348 400 21,000  Level Boston Center
Sat 11:23:41 AM 41.4958 -72.3153 71° East 348 400 21,000  Level Boston Center
Sat 11:24:41 AM 41.5269 -72.1961 71° East 348 400 21,000 -450 Level Boston Center
Sat 11:25:41 AM 41.5600 -72.0711 70° East 348 400 20,100 -1,500 Descending Boston Center
Sat 11:26:53 AM 41.5947 -71.9433 70° East 353 406 17,700 -2,227 Descending Boston Center
Sat 11:27:53 AM 41.6356 -71.7789 72° East 353 406 15,200 -2,100 Descending Boston Center
Sat 11:28:53 AM 41.6642 -71.6703 71° East 347 399 13,500 -1,700 Descending Boston Center
Sat 11:29:53 AM 41.6967 -71.5392 72° East 347 399 11,800 -1,250 Descending Boston Center
Sat 11:30:53 AM 41.7269 -71.4275 70° East 334 384 11,000 -400 Descending Boston Center
Sat 11:31:53 AM 41.7719 -71.3378 56° Northeast 293 337 11,000  Level Boston Center
Sat 11:32:53 AM 41.8253 -71.2700 43° Northeast 265 305 11,000 -100 Level Boston Center
Sat 11:33:53 AM 41.8875 -71.2297 26° Northeast 250 288 10,800 -1,200 Descending Boston Center
Sat 11:34:53 AM 41.9622 -71.1978 18° North 268 308 8,600 -1,750 Descending Boston Center
Sat 11:35:53 AM 42.0347 -71.1628 20° North 274 315 7,300 -1,350 Descending Boston Center
Sat 11:36:53 AM 42.1031 -71.1306 19° North 263 303 5,900 -1,550 Descending Boston Center
Sat 11:37:53 AM 42.1633 -71.1014 20° North 240 276 4,200 -1,450 Descending Boston Center
Sat 11:38:53 AM 42.2150 -71.0750 21° North 203 234 3,000 -1,200 Descending Boston Center

Login

Don't have an account? Register now (free) for customized features, flight alerts, and more!